Time;durP1;ratioP1;P1;durP2;ratioP2;P2;SDS_P1;SDS_P2;PMS_P1;PMS_P2;Temp;Humidity;BMP_temperature;BMP_pressure;BME280_temperature;BME280_humidity;BME280_pressure;Samples;Min_cycle;Max_cycle;Signal;HPM_P1;HPM_P2
2023/05/31 00:01:46;;;;;;;;;;;14.30;99.90;;;;;;7334406;19;111172;-70
2023/05/31 00:04:13;;;;;;;;;;;14.20;99.90;;;;;;7331133;19;112121;-70
2023/05/31 00:06:40;;;;;;;;;;;14.10;99.90;;;;;;7332319;19;110725;-70
2023/05/31 00:09:07;;;;;;;;;;;14.10;99.90;;;;;;7328321;19;110707;-70
2023/05/31 00:11:34;;;;;;;;;;;14.10;99.90;;;;;;7332856;19;110384;-70
2023/05/31 00:14:01;;;;;;;;;;;14.10;99.90;;;;;;7334262;19;113809;-70
2023/05/31 00:16:28;;;;;;;;;;;14.10;99.90;;;;;;7332046;19;110310;-70
2023/05/31 00:18:59;;;;;;;;;;;14.10;99.90;;;;;;7332248;19;110754;-70
2023/05/31 00:21:26;;;;;;;;;;;14.10;99.90;;;;;;7330268;19;111355;-71
2023/05/31 00:23:53;;;;;;;;;;;14.00;99.90;;;;;;7330929;19;110045;-70
2023/05/31 00:26:21;;;;;;;;;;;14.00;99.90;;;;;;7331406;19;110767;-71
2023/05/31 00:28:49;;;;;;;;;;;14.00;99.90;;;;;;7330919;19;111149;-70
2023/05/31 00:31:16;;;;;;;;;;;14.00;99.90;;;;;;7327763;19;110008;-70
2023/05/31 00:33:43;;;;;;;;;;;14.00;99.90;;;;;;7335087;19;109981;-71
2023/05/31 00:36:11;;;;;;;;;;;14.00;99.90;;;;;;7336797;19;111419;-70
2023/05/31 00:38:38;;;;;;;;;;;14.00;99.90;;;;;;7328809;19;109720;-70
2023/05/31 00:41:06;;;;;;;;;;;13.90;99.90;;;;;;7330470;19;110101;-70
2023/05/31 00:43:33;;;;;;;;;;;13.90;99.90;;;;;;7333413;19;109539;-71
2023/05/31 00:46:01;;;;;;;;;;;13.90;99.90;;;;;;7334581;19;110166;-70
2023/05/31 00:48:29;;;;;;;;;;;13.80;99.90;;;;;;7332958;19;110446;-70
2023/05/31 00:50:56;;;;;;;;;;;13.80;99.90;;;;;;7332741;19;111146;-70
2023/05/31 00:53:24;;;;;;;;;;;13.80;99.90;;;;;;7329287;19;112102;-70
2023/05/31 00:55:52;;;;;;;;;;;13.80;99.90;;;;;;7333694;19;113776;-70
2023/05/31 00:58:22;;;;;;;;;;;13.80;99.90;;;;;;7334352;19;111249;-71
2023/05/31 01:00:49;;;;;;;;;;;13.80;99.90;;;;;;7331211;19;110148;-71
2023/05/31 01:03:18;;;;;;;;;;;13.70;99.90;;;;;;7332854;19;114158;-70
2023/05/31 01:05:46;;;;;;;;;;;13.70;99.90;;;;;;7330866;19;111476;-70
2023/05/31 01:08:14;;;;;;;;;;;13.70;99.90;;;;;;7330714;19;110181;-71
2023/05/31 01:10:41;;;;;;;;;;;13.70;99.90;;;;;;7334176;19;109608;-70
2023/05/31 01:13:08;;;;;;;;;;;13.80;99.90;;;;;;7332813;19;109836;-70
2023/05/31 01:15:39;;;;;;;;;;;13.80;99.90;;;;;;7326304;19;111452;-71
2023/05/31 01:18:10;;;;;;;;;;;13.70;99.90;;;;;;7336175;19;110245;-71
2023/05/31 01:20:38;;;;;;;;;;;13.70;99.90;;;;;;7332819;19;110144;-70
2023/05/31 01:23:21;;;;;;;;;;;13.70;99.90;;;;;;7330281;19;111608;-71
2023/05/31 01:26:04;;;;;;;;;;;13.70;99.90;;;;;;7330655;19;109758;-70
2023/05/31 01:28:33;;;;;;;;;;;13.60;99.90;;;;;;7329053;19;111288;-71
2023/05/31 01:31:01;;;;;;;;;;;13.60;99.90;;;;;;7330465;19;109357;-70
2023/05/31 01:33:29;;;;;;;;;;;13.60;99.90;;;;;;7328417;19;109559;-71
2023/05/31 01:35:56;;;;;;;;;;;13.50;99.90;;;;;;7329696;19;110095;-70
2023/05/31 01:38:23;;;;;;;;;;;13.50;99.90;;;;;;7324178;19;110801;-71
2023/05/31 01:40:50;;;;;;;;;;;13.50;99.90;;;;;;7337822;19;109720;-70
2023/05/31 01:43:18;;;;;;;;;;;13.50;99.90;;;;;;7332692;19;109386;-71
2023/05/31 01:45:50;;;;;;;;;;;13.50;99.90;;;;;;7331326;19;120559;-71
2023/05/31 01:48:17;;;;;;;;;;;13.40;99.90;;;;;;7328485;19;110118;-71
2023/05/31 01:50:45;;;;;;;;;;;13.40;99.90;;;;;;7329709;19;111362;-71
2023/05/31 01:53:15;;;;;;;;;;;13.40;99.90;;;;;;7332513;19;109687;-71
2023/05/31 01:55:43;;;;;;;;;;;13.40;99.90;;;;;;7331593;19;110005;-71
2023/05/31 01:58:11;;;;;;;;;;;13.40;99.90;;;;;;7328891;19;110081;-70
2023/05/31 02:00:38;;;;;;;;;;;13.30;99.90;;;;;;7326571;19;112240;-70
2023/05/31 02:03:05;;;;;;;;;;;13.30;99.90;;;;;;7332103;19;111200;-71
2023/05/31 02:05:32;;;;;;;;;;;13.30;99.90;;;;;;7325705;19;111203;-71
2023/05/31 02:07:59;;;;;;;;;;;13.30;99.90;;;;;;7331719;19;110452;-70
2023/05/31 02:10:26;;;;;;;;;;;13.30;99.90;;;;;;7329847;19;109954;-71
2023/05/31 02:12:54;;;;;;;;;;;13.20;99.90;;;;;;7328749;19;111053;-71
2023/05/31 02:15:23;;;;;;;;;;;13.20;99.90;;;;;;7331071;19;110933;-71
2023/05/31 02:17:51;;;;;;;;;;;13.20;99.90;;;;;;7330830;19;109757;-70
2023/05/31 02:20:18;;;;;;;;;;;13.20;99.90;;;;;;7326082;19;110634;-71
2023/05/31 02:22:46;;;;;;;;;;;13.10;99.90;;;;;;7332818;19;110828;-72
2023/05/31 02:25:14;;;;;;;;;;;13.10;99.90;;;;;;7335012;19;110383;-72
2023/05/31 02:27:41;;;;;;;;;;;13.10;99.90;;;;;;7328963;19;111274;-71
2023/05/31 02:30:09;;;;;;;;;;;13.10;99.90;;;;;;7330233;19;110464;-71
2023/05/31 02:32:37;;;;;;;;;;;13.20;99.90;;;;;;7323784;19;110158;-72
2023/05/31 02:35:06;;;;;;;;;;;13.10;99.90;;;;;;7328144;19;110364;-73
2023/05/31 02:37:34;;;;;;;;;;;13.10;99.90;;;;;;7331760;19;110788;-71
2023/05/31 02:40:04;;;;;;;;;;;13.10;99.90;;;;;;7328593;19;112218;-71
2023/05/31 02:42:33;;;;;;;;;;;13.10;99.90;;;;;;7326254;19;110058;-71
2023/05/31 02:45:00;;;;;;;;;;;13.10;99.90;;;;;;7332502;19;109702;-71
2023/05/31 02:47:27;;;;;;;;;;;13.00;99.90;;;;;;7342263;19;109863;-71
2023/05/31 02:49:54;;;;;;;;;;;13.10;99.90;;;;;;7337217;19;109653;-71
2023/05/31 02:52:23;;;;;;;;;;;13.10;99.90;;;;;;7334143;19;111158;-71
2023/05/31 02:54:50;;;;;;;;;;;13.00;99.90;;;;;;7336401;19;111582;-73
2023/05/31 02:57:17;;;;;;;;;;;13.00;99.90;;;;;;7336079;19;110273;-71
2023/05/31 02:59:45;;;;;;;;;;;12.90;99.90;;;;;;7335199;19;110360;-72
2023/05/31 03:02:12;;;;;;;;;;;12.90;99.90;;;;;;7333849;19;111341;-73
2023/05/31 03:04:41;;;;;;;;;;;12.90;99.90;;;;;;7334889;19;110640;-71
2023/05/31 03:07:08;;;;;;;;;;;12.90;99.90;;;;;;7338566;19;109631;-72
2023/05/31 03:09:35;;;;;;;;;;;12.90;99.90;;;;;;7336588;19;110874;-71
2023/05/31 03:12:03;;;;;;;;;;;12.80;99.90;;;;;;7335134;19;109670;-72
2023/05/31 03:14:30;;;;;;;;;;;12.80;99.90;;;;;;7333828;19;111128;-71
2023/05/31 03:16:57;;;;;;;;;;;12.80;99.90;;;;;;7335943;19;110240;-71
2023/05/31 03:19:24;;;;;;;;;;;12.80;99.90;;;;;;7334161;19;109881;-71
2023/05/31 03:21:51;;;;;;;;;;;12.70;99.90;;;;;;7335825;19;110791;-70
2023/05/31 03:24:18;;;;;;;;;;;12.70;99.90;;;;;;7334817;19;110921;-71
2023/05/31 03:26:45;;;;;;;;;;;12.70;99.90;;;;;;7337282;19;109957;-72
2023/05/31 03:29:13;;;;;;;;;;;12.70;99.90;;;;;;7339432;19;112601;-71
2023/05/31 03:31:40;;;;;;;;;;;12.70;99.90;;;;;;7335563;19;111060;-71
2023/05/31 03:34:10;;;;;;;;;;;12.70;99.90;;;;;;7333651;19;110268;-71
2023/05/31 03:36:38;;;;;;;;;;;12.70;99.90;;;;;;7334902;19;109851;-73
2023/05/31 03:39:05;;;;;;;;;;;12.60;99.90;;;;;;7334944;19;110602;-71
2023/05/31 03:41:32;;;;;;;;;;;12.60;99.90;;;;;;7337296;19;110676;-72
2023/05/31 03:44:00;;;;;;;;;;;12.60;99.90;;;;;;7335017;19;110071;-71
2023/05/31 03:46:27;;;;;;;;;;;12.60;99.90;;;;;;7334801;19;110963;-70
2023/05/31 03:48:55;;;;;;;;;;;12.70;99.90;;;;;;7330075;19;110623;-73
2023/05/31 03:51:24;;;;;;;;;;;12.70;99.90;;;;;;7339163;19;110240;-72
2023/05/31 03:53:51;;;;;;;;;;;12.60;99.90;;;;;;7334391;19;110093;-71
2023/05/31 03:56:19;;;;;;;;;;;12.60;99.90;;;;;;7331247;19;109912;-76
2023/05/31 03:58:46;;;;;;;;;;;12.70;99.90;;;;;;7331040;19;115215;-76
2023/05/31 04:01:13;;;;;;;;;;;12.70;99.90;;;;;;7335334;19;110199;-74
2023/05/31 04:03:40;;;;;;;;;;;12.70;99.90;;;;;;7332599;19;109607;-74
2023/05/31 04:06:07;;;;;;;;;;;12.70;99.90;;;;;;7334877;19;110547;-76
2023/05/31 04:08:35;;;;;;;;;;;12.70;99.90;;;;;;7332390;19;110085;-73
2023/05/31 04:11:02;;;;;;;;;;;12.70;99.90;;;;;;7332212;19;110693;-75
2023/05/31 04:13:30;;;;;;;;;;;12.70;99.90;;;;;;7336276;19;110393;-75
2023/05/31 04:15:57;;;;;;;;;;;12.70;99.90;;;;;;7333360;19;110418;-75
2023/05/31 04:18:24;;;;;;;;;;;12.60;99.90;;;;;;7332492;19;109973;-77
2023/05/31 04:20:52;;;;;;;;;;;12.70;99.90;;;;;;7332624;19;110163;-73
2023/05/31 04:23:20;;;;;;;;;;;12.70;99.90;;;;;;7332421;19;109499;-78
2023/05/31 04:25:47;;;;;;;;;;;12.80;99.90;;;;;;7333916;19;109367;-75
2023/05/31 04:28:15;;;;;;;;;;;12.90;99.90;;;;;;7330055;19;110175;-73
2023/05/31 04:30:45;;;;;;;;;;;12.90;99.90;;;;;;7330400;19;109429;-74
2023/05/31 04:33:13;;;;;;;;;;;12.90;99.90;;;;;;7333238;19;109926;-72
2023/05/31 04:35:40;;;;;;;;;;;12.80;99.90;;;;;;7334949;19;112275;-85
2023/05/31 04:38:08;;;;;;;;;;;12.80;99.90;;;;;;7327072;19;110058;-86
2023/05/31 04:40:35;;;;;;;;;;;12.80;99.90;;;;;;7319065;19;113114;-86
2023/05/31 04:43:02;;;;;;;;;;;12.80;99.90;;;;;;7325969;19;109881;-86
2023/05/31 04:45:32;;;;;;;;;;;12.90;99.90;;;;;;7329382;19;110840;-86
2023/05/31 04:47:59;;;;;;;;;;;12.90;99.90;;;;;;7331745;19;111210;-85
2023/05/31 04:50:28;;;;;;;;;;;12.90;99.90;;;;;;7321835;19;113045;-86
2023/05/31 04:52:57;;;;;;;;;;;13.00;99.90;;;;;;7324869;19;111399;-87
2023/05/31 04:55:26;;;;;;;;;;;13.00;99.90;;;;;;7325963;19;113187;-86
2023/05/31 04:57:53;;;;;;;;;;;13.00;99.90;;;;;;7331106;19;109413;-86
2023/05/31 05:00:20;;;;;;;;;;;13.10;99.90;;;;;;7327795;19;114053;-86
2023/05/31 05:02:47;;;;;;;;;;;13.10;99.90;;;;;;7324388;19;110247;-86
2023/05/31 05:05:16;;;;;;;;;;;13.20;99.90;;;;;;7324590;19;111805;-86
2023/05/31 05:07:43;;;;;;;;;;;13.20;99.90;;;;;;7327509;19;111448;-86
2023/05/31 05:10:10;;;;;;;;;;;13.30;99.90;;;;;;7328250;19;110724;-86
2023/05/31 05:12:37;;;;;;;;;;;13.40;99.90;;;;;;7329339;19;110435;-86
2023/05/31 05:15:04;;;;;;;;;;;13.40;99.90;;;;;;7326914;19;111474;-85
2023/05/31 05:17:31;;;;;;;;;;;13.50;99.90;;;;;;7333699;19;109856;-85
2023/05/31 05:19:59;;;;;;;;;;;13.60;99.90;;;;;;7323838;19;114111;-88
2023/05/31 05:22:26;;;;;;;;;;;13.70;99.90;;;;;;7324367;19;110937;-86
2023/05/31 05:24:53;;;;;;;;;;;13.80;99.90;;;;;;7325250;19;110172;-86
2023/05/31 05:27:21;;;;;;;;;;;13.80;99.90;;;;;;7324611;19;113744;-87
2023/05/31 05:29:48;;;;;;;;;;;13.90;99.90;;;;;;7329097;19;109504;-85
2023/05/31 05:32:15;;;;;;;;;;;14.00;99.90;;;;;;7324903;19;113768;-85
2023/05/31 05:34:43;;;;;;;;;;;14.10;99.90;;;;;;7326074;19;114744;-86
2023/05/31 05:37:10;;;;;;;;;;;14.20;99.90;;;;;;7324015;19;110616;-86
2023/05/31 05:39:37;;;;;;;;;;;14.20;99.90;;;;;;7327828;19;114398;-86
2023/05/31 05:42:04;;;;;;;;;;;14.30;99.90;;;;;;7327155;19;110538;-86
2023/05/31 05:44:31;;;;;;;;;;;14.40;99.90;;;;;;7325388;19;110267;-84
2023/05/31 05:46:58;;;;;;;;;;;14.40;99.90;;;;;;7327495;19;110798;-86
2023/05/31 05:49:26;;;;;;;;;;;14.50;99.90;;;;;;7323887;19;113053;-86
2023/05/31 05:51:53;;;;;;;;;;;14.60;99.90;;;;;;7323376;19;112986;-85
2023/05/31 05:54:20;;;;;;;;;;;14.60;99.90;;;;;;7325127;19;114577;-85
2023/05/31 05:56:47;;;;;;;;;;;14.60;99.90;;;;;;7325126;19;110784;-86
2023/05/31 05:59:14;;;;;;;;;;;14.70;99.90;;;;;;7323725;19;109949;-85
2023/05/31 06:01:41;;;;;;;;;;;14.80;99.90;;;;;;7330395;19;111860;-86
2023/05/31 06:04:09;;;;;;;;;;;14.80;99.90;;;;;;7322690;19;111873;-86
2023/05/31 06:06:36;;;;;;;;;;;15.00;99.90;;;;;;7327009;19;112295;-86
2023/05/31 06:09:03;;;;;;;;;;;15.20;99.90;;;;;;7323199;19;111068;-85
2023/05/31 06:11:30;;;;;;;;;;;15.30;99.90;;;;;;7327216;19;110576;-86
2023/05/31 06:14:00;;;;;;;;;;;15.40;99.90;;;;;;7325166;19;111429;-86
2023/05/31 06:16:27;;;;;;;;;;;15.40;99.90;;;;;;7322941;19;111264;-86
2023/05/31 06:18:54;;;;;;;;;;;15.60;99.90;;;;;;7327543;19;110001;-86
2023/05/31 06:21:27;;;;;;;;;;;15.70;99.90;;;;;;7331805;19;111583;-87
2023/05/31 06:23:54;;;;;;;;;;;15.80;99.90;;;;;;7333644;19;110176;-86
2023/05/31 06:26:22;;;;;;;;;;;15.90;99.90;;;;;;7330367;19;112246;-86
2023/05/31 06:28:50;;;;;;;;;;;15.90;99.90;;;;;;7332097;19;110158;-86
2023/05/31 06:31:17;;;;;;;;;;;15.90;99.90;;;;;;7332750;19;111107;-86
2023/05/31 06:33:44;;;;;;;;;;;15.90;99.90;;;;;;7332597;19;111363;-86
2023/05/31 06:36:11;;;;;;;;;;;15.90;99.90;;;;;;7331764;19;109863;-87
2023/05/31 06:38:39;;;;;;;;;;;16.00;99.90;;;;;;7331230;19;110368;-86
2023/05/31 06:41:06;;;;;;;;;;;16.20;99.90;;;;;;7329672;19;111185;-86
2023/05/31 06:43:32;;;;;;;;;;;16.30;99.90;;;;;;7334807;19;110129;-87
2023/05/31 06:46:00;;;;;;;;;;;16.30;99.90;;;;;;7335568;19;111795;-89
2023/05/31 06:48:27;;;;;;;;;;;16.40;99.90;;;;;;7329546;19;110293;-88
2023/05/31 06:50:54;;;;;;;;;;;16.50;99.90;;;;;;7331136;19;110726;-86
2023/05/31 06:53:21;;;;;;;;;;;16.70;99.90;;;;;;7327656;19;111499;-87
2023/05/31 06:55:48;;;;;;;;;;;16.80;99.90;;;;;;7331210;19;109982;-86
2023/05/31 06:58:16;;;;;;;;;;;16.90;99.90;;;;;;7332545;19;111414;-86
2023/05/31 07:00:43;;;;;;;;;;;16.90;99.90;;;;;;7329900;19;111110;-86
2023/05/31 07:03:13;;;;;;;;;;;16.80;99.90;;;;;;7332537;19;111804;-86
2023/05/31 07:05:42;;;;;;;;;;;16.80;99.90;;;;;;7328624;19;113898;-86
2023/05/31 07:08:10;;;;;;;;;;;16.80;99.90;;;;;;7335040;19;112744;-87
2023/05/31 07:10:37;;;;;;;;;;;17.00;99.90;;;;;;7328866;19;110120;-87
2023/05/31 07:13:04;;;;;;;;;;;17.00;99.90;;;;;;7329619;19;114164;-86
2023/05/31 07:15:31;;;;;;;;;;;17.10;99.90;;;;;;7329942;19;109821;-86
2023/05/31 07:17:58;;;;;;;;;;;17.10;99.90;;;;;;7330266;19;112634;-88
2023/05/31 07:20:25;;;;;;;;;;;17.20;99.90;;;;;;7330942;19;112093;-86
2023/05/31 07:22:53;;;;;;;;;;;17.30;99.90;;;;;;7333109;19;110536;-85
2023/05/31 07:25:20;;;;;;;;;;;17.40;99.90;;;;;;7330648;19;110367;-85
2023/05/31 07:27:49;;;;;;;;;;;17.50;99.90;;;;;;7336100;19;110984;-85
2023/05/31 07:30:17;;;;;;;;;;;17.60;99.90;;;;;;7330649;19;110376;-87
2023/05/31 07:32:44;;;;;;;;;;;17.70;99.90;;;;;;7326950;19;111634;-87
2023/05/31 07:35:11;;;;;;;;;;;17.80;99.90;;;;;;7325665;19;110854;-87
2023/05/31 07:37:38;;;;;;;;;;;17.80;99.90;;;;;;7326334;19;110845;-87
2023/05/31 07:40:07;;;;;;;;;;;17.80;99.90;;;;;;7328911;19;111239;-86
2023/05/31 07:42:34;;;;;;;;;;;17.80;99.90;;;;;;7327038;19;110782;-86
2023/05/31 07:45:01;;;;;;;;;;;17.80;99.90;;;;;;7327852;19;110024;-86
2023/05/31 07:47:28;;;;;;;;;;;17.90;99.90;;;;;;7325721;19;112179;-87
2023/05/31 07:49:56;;;;;;;;;;;18.00;99.90;;;;;;7339161;19;109579;-69
2023/05/31 07:52:23;;;;;;;;;;;18.20;99.90;;;;;;7332860;19;111315;-69
2023/05/31 07:54:50;;;;;;;;;;;18.40;99.90;;;;;;7335710;19;109475;-71
2023/05/31 07:57:17;;;;;;;;;;;18.50;99.90;;;;;;7337343;19;111675;-69
2023/05/31 07:59:45;;;;;;;;;;;18.60;99.90;;;;;;7336911;19;111774;-70
2023/05/31 08:02:12;;;;;;;;;;;18.70;99.90;;;;;;7334407;19;109377;-69
2023/05/31 08:04:39;;;;;;;;;;;18.90;99.90;;;;;;7338460;19;109442;-69
2023/05/31 08:07:06;;;;;;;;;;;19.00;99.90;;;;;;7334103;19;113379;-69
2023/05/31 08:09:33;;;;;;;;;;;19.00;99.90;;;;;;7338353;19;109827;-69
2023/05/31 08:12:02;;;;;;;;;;;19.10;99.90;;;;;;7341484;19;110100;-69
2023/05/31 08:14:30;;;;;;;;;;;19.20;99.90;;;;;;7336697;19;109466;-70
2023/05/31 08:16:57;;;;;;;;;;;19.30;99.90;;;;;;7335624;19;109960;-69
2023/05/31 08:19:24;;;;;;;;;;;19.30;99.90;;;;;;7332726;19;111170;-69
2023/05/31 08:21:51;;;;;;;;;;;19.40;99.90;;;;;;7336441;19;110164;-69
2023/05/31 08:24:19;;;;;;;;;;;19.50;99.90;;;;;;7334633;19;109448;-70
2023/05/31 08:26:46;;;;;;;;;;;19.50;99.90;;;;;;7335745;19;111064;-70
2023/05/31 08:29:13;;;;;;;;;;;19.60;99.90;;;;;;7334753;19;109358;-71
2023/05/31 08:31:40;;;;;;;;;;;19.70;99.90;;;;;;7332978;19;109676;-69
2023/05/31 08:34:07;;;;;;;;;;;19.70;99.90;;;;;;7339820;19;110409;-69
2023/05/31 08:36:35;;;;;;;;;;;19.80;99.90;;;;;;7334396;19;110565;-69
2023/05/31 08:39:03;;;;;;;;;;;19.90;99.90;;;;;;7334177;19;111096;-69
2023/05/31 08:41:33;;;;;;;;;;;19.90;99.90;;;;;;7334765;19;109496;-70
2023/05/31 08:44:01;;;;;;;;;;;20.00;99.90;;;;;;7330627;19;109885;-71
2023/05/31 08:46:28;;;;;;;;;;;20.20;99.90;;;;;;7336564;19;110706;-69
2023/05/31 08:48:58;;;;;;;;;;;20.30;99.90;;;;;;7335095;19;110699;-69
2023/05/31 08:51:26;;;;;;;;;;;20.40;99.90;;;;;;7334032;19;110165;-69
2023/05/31 08:53:54;;;;;;;;;;;20.50;99.90;;;;;;7334068;19;110076;-70
2023/05/31 08:56:23;;;;;;;;;;;20.60;99.90;;;;;;7340160;19;110740;-70
2023/05/31 08:58:53;;;;;;;;;;;20.70;99.90;;;;;;7332337;19;111389;-69
2023/05/31 09:01:20;;;;;;;;;;;20.70;99.90;;;;;;7335415;19;109993;-69
2023/05/31 09:03:47;;;;;;;;;;;20.70;99.90;;;;;;7334950;19;110293;-69
2023/05/31 09:06:14;;;;;;;;;;;20.70;99.90;;;;;;7332979;19;110179;-69
2023/05/31 09:08:42;;;;;;;;;;;20.80;99.90;;;;;;7334788;19;110397;-69
2023/05/31 09:11:09;;;;;;;;;;;21.00;99.90;;;;;;7334260;19;113332;-69
2023/05/31 09:13:36;;;;;;;;;;;21.20;99.90;;;;;;7333573;19;113160;-69
2023/05/31 09:16:04;;;;;;;;;;;21.30;99.90;;;;;;7334830;19;110212;-69
2023/05/31 09:18:39;;;;;;;;;;;21.40;99.90;;;;;;7335928;19;109595;-69
2023/05/31 09:21:13;;;;;;;;;;;21.40;99.90;;;;;;7334611;19;110736;-71
2023/05/31 09:23:53;;;;;;;;;;;21.40;99.90;;;;;;7333909;19;109429;-69
2023/05/31 09:26:20;;;;;;;;;;;21.40;99.90;;;;;;7332621;19;111240;-71
2023/05/31 09:28:48;;;;;;;;;;;21.40;99.90;;;;;;7333789;19;109606;-69
2023/05/31 09:31:17;;;;;;;;;;;21.60;99.90;;;;;;7325259;19;110665;-69
2023/05/31 09:33:47;;;;;;;;;;;21.90;99.90;;;;;;7330566;19;110850;-69
2023/05/31 09:36:23;;;;;;;;;;;22.10;99.90;;;;;;7328673;19;109835;-69
2023/05/31 09:38:50;;;;;;;;;;;22.20;99.90;;;;;;7334525;19;111477;-69
2023/05/31 09:41:18;;;;;;;;;;;22.30;99.90;;;;;;7329141;19;110631;-69
2023/05/31 09:43:48;;;;;;;;;;;22.40;99.90;;;;;;7330453;19;109669;-69
2023/05/31 09:46:16;;;;;;;;;;;22.40;99.90;;;;;;7330493;19;111143;-69
2023/05/31 09:48:44;;;;;;;;;;;22.50;99.90;;;;;;7328907;19;110796;-69
2023/05/31 09:51:12;;;;;;;;;;;22.60;99.90;;;;;;7330960;19;110465;-69
2023/05/31 09:53:40;;;;;;;;;;;22.80;99.90;;;;;;7325111;19;110888;-70
2023/05/31 09:56:17;;;;;;;;;;;22.80;99.90;;;;;;7328752;19;112668;-70
2023/05/31 09:58:44;;;;;;;;;;;22.70;99.40;;;;;;7326323;19;110076;-69
2023/05/31 10:01:11;;;;;;;;;;;22.70;99.90;;;;;;7336732;19;114490;-69
2023/05/31 10:03:38;;;;;;;;;;;22.80;99.90;;;;;;7326758;19;111529;-70
2023/05/31 10:06:06;;;;;;;;;;;22.90;99.40;;;;;;7330612;19;110888;-70
2023/05/31 10:08:34;;;;;;;;;;;23.00;99.90;;;;;;7328553;19;110213;-70
2023/05/31 10:11:01;;;;;;;;;;;23.00;99.90;;;;;;7331841;19;110276;-69
2023/05/31 10:13:29;;;;;;;;;;;23.10;99.50;;;;;;7328920;19;110118;-70
2023/05/31 10:16:04;;;;;;;;;;;23.20;98.80;;;;;;7332058;19;110069;-69
2023/05/31 10:18:33;;;;;;;;;;;23.20;99.90;;;;;;7331080;19;110645;-70
2023/05/31 10:21:20;;;;;;;;;;;23.30;99.40;;;;;;7329034;19;111228;-70
2023/05/31 10:23:53;;;;;;;;;;;23.50;99.00;;;;;;7333888;19;110814;-69
2023/05/31 10:26:22;;;;;;;;;;;23.60;96.60;;;;;;7329647;19;110304;-69
2023/05/31 10:28:56;;;;;;;;;;;23.50;96.70;;;;;;7329755;19;109712;-71
2023/05/31 10:31:26;;;;;;;;;;;23.50;97.60;;;;;;7329034;19;109775;-70
2023/05/31 10:33:54;;;;;;;;;;;23.50;96.90;;;;;;7327591;19;110472;-69
2023/05/31 10:36:21;;;;;;;;;;;23.60;96.00;;;;;;7331621;19;114423;-69
2023/05/31 10:38:52;;;;;;;;;;;23.70;96.00;;;;;;7330345;19;110328;-70
2023/05/31 10:41:21;;;;;;;;;;;23.60;94.90;;;;;;7329952;19;110160;-69
2023/05/31 10:44:04;;;;;;;;;;;23.70;95.40;;;;;;7328994;19;110311;-69
2023/05/31 10:46:33;;;;;;;;;;;23.70;94.50;;;;;;7328707;19;110451;-69
2023/05/31 10:49:02;;;;;;;;;;;23.80;95.60;;;;;;7332459;19;109758;-67
2023/05/31 10:51:39;;;;;;;;;;;23.90;95.70;;;;;;7328213;19;109204;-66
2023/05/31 10:54:06;;;;;;;;;;;24.00;96.00;;;;;;7330111;19;110414;-70
2023/05/31 10:56:36;;;;;;;;;;;24.20;94.30;;;;;;7329923;19;109695;-67
2023/05/31 10:59:04;;;;;;;;;;;24.30;95.70;;;;;;7325469;19;110628;-66
2023/05/31 11:01:31;;;;;;;;;;;24.40;95.10;;;;;;7339654;19;110399;-60
2023/05/31 11:03:58;;;;;;;;;;;24.50;94.50;;;;;;7321298;19;109684;-64
2023/05/31 11:06:32;;;;;;;;;;;24.60;94.50;;;;;;7344148;19;111992;-60
2023/05/31 11:09:01;;;;;;;;;;;24.70;94.70;;;;;;7353053;19;110208;-64
2023/05/31 11:11:44;;;;;;;;;;;24.80;94.90;;;;;;7349453;19;109530;-64
2023/05/31 11:14:26;;;;;;;;;;;24.80;94.70;;;;;;7350071;19;111421;-60
2023/05/31 11:16:53;;;;;;;;;;;24.90;93.80;;;;;;7342885;19;110491;-63
2023/05/31 11:19:26;;;;;;;;;;;24.80;93.70;;;;;;7337614;19;109929;-64
2023/05/31 11:21:57;;;;;;;;;;;24.80;93.60;;;;;;7339567;19;111530;-69
2023/05/31 11:24:26;;;;;;;;;;;24.90;93.30;;;;;;7339754;19;110286;-63
2023/05/31 11:26:58;;;;;;;;;;;24.90;92.00;;;;;;7339629;19;110629;-68
2023/05/31 11:29:48;;;;;;;;;;;25.00;94.00;;;;;;7338790;19;110615;-64
2023/05/31 11:32:15;;;;;;;;;;;25.10;93.30;;;;;;7342754;19;109899;-64
2023/05/31 11:34:49;;;;;;;;;;;25.20;93.30;;;;;;7336781;19;110126;-66
2023/05/31 11:37:16;;;;;;;;;;;25.40;93.40;;;;;;7338028;19;112424;-61
2023/05/31 11:39:43;;;;;;;;;;;25.30;91.00;;;;;;7338558;19;109630;-66
2023/05/31 11:42:10;;;;;;;;;;;25.30;91.90;;;;;;7333271;19;110596;-67
2023/05/31 11:44:41;;;;;;;;;;;25.20;91.90;;;;;;7338929;19;109760;-69
2023/05/31 11:47:10;;;;;;;;;;;25.30;90.60;;;;;;7336208;19;111522;-64
2023/05/31 11:49:37;;;;;;;;;;;25.30;91.70;;;;;;7336922;19;110332;-69
2023/05/31 11:52:04;;;;;;;;;;;25.50;92.30;;;;;;7343051;19;109827;-71
2023/05/31 11:54:32;;;;;;;;;;;25.50;91.00;;;;;;7335875;19;111229;-74
2023/05/31 11:57:01;;;;;;;;;;;25.50;90.80;;;;;;7332629;19;110116;-69
2023/05/31 11:59:31;;;;;;;;;;;25.40;89.90;;;;;;7337556;19;110052;-61
2023/05/31 12:02:00;;;;;;;;;;;25.50;91.10;;;;;;7330350;19;110642;-61
2023/05/31 12:04:30;;;;;;;;;;;25.70;92.00;;;;;;7335626;19;109859;-68
2023/05/31 12:06:58;;;;;;;;;;;25.90;90.10;;;;;;7335062;19;111445;-69
2023/05/31 12:09:27;;;;;;;;;;;25.90;90.20;;;;;;7335370;19;111274;-68
2023/05/31 12:11:56;;;;;;;;;;;26.10;91.00;;;;;;7337055;19;110962;-66
2023/05/31 12:14:26;;;;;;;;;;;26.20;91.40;;;;;;7343309;19;110185;-64
2023/05/31 12:16:53;;;;;;;;;;;26.30;88.70;;;;;;7335915;19;112806;-62
2023/05/31 12:19:21;;;;;;;;;;;26.20;86.60;;;;;;7335961;19;109960;-69
2023/05/31 12:21:48;;;;;;;;;;;26.10;86.90;;;;;;7336998;19;110279;-62
2023/05/31 12:24:16;;;;;;;;;;;26.20;87.90;;;;;;7332993;19;109521;-64
2023/05/31 12:26:45;;;;;;;;;;;26.40;90.40;;;;;;7335524;19;109626;-62
2023/05/31 12:29:14;;;;;;;;;;;26.50;88.50;;;;;;7332284;19;110142;-65
2023/05/31 12:31:42;;;;;;;;;;;26.50;90.20;;;;;;7333316;19;110688;-62
2023/05/31 12:34:10;;;;;;;;;;;26.70;91.00;;;;;;7334857;19;110417;-69
2023/05/31 12:36:38;;;;;;;;;;;26.90;90.20;;;;;;7339458;19;110202;-68
2023/05/31 12:39:27;;;;;;;;;;;27.00;88.40;;;;;;7334535;19;109627;-70
2023/05/31 12:41:53;;;;;;;;;;;26.90;85.70;;;;;;7333768;19;111107;-65
2023/05/31 12:44:21;;;;;;;;;;;26.80;86.80;;;;;;7335435;19;110445;-68
2023/05/31 12:46:49;;;;;;;;;;;26.70;85.00;;;;;;7331772;19;109747;-67
2023/05/31 12:49:23;;;;;;;;;;;26.50;84.60;;;;;;7332070;19;111289;-67
2023/05/31 12:51:56;;;;;;;;;;;26.60;84.30;;;;;;7332721;19;110072;-69
2023/05/31 12:54:24;;;;;;;;;;;26.50;85.60;;;;;;7334876;19;109827;-68
2023/05/31 12:56:52;;;;;;;;;;;26.70;87.70;;;;;;7332213;19;110309;-65
2023/05/31 12:59:20;;;;;;;;;;;27.00;87.70;;;;;;7337225;19;109958;-77
2023/05/31 13:01:47;;;;;;;;;;;27.20;84.10;;;;;;7333228;19;111236;-65
2023/05/31 13:04:14;;;;;;;;;;;27.00;81.20;;;;;;7333667;19;111357;-66
2023/05/31 13:06:42;;;;;;;;;;;26.90;82.10;;;;;;7335335;19;110558;-65
2023/05/31 13:09:09;;;;;;;;;;;27.00;85.00;;;;;;7331948;19;113769;-67
2023/05/31 13:11:37;;;;;;;;;;;27.20;85.60;;;;;;7331895;19;111095;-61
2023/05/31 13:14:04;;;;;;;;;;;27.30;85.50;;;;;;7332919;19;111654;-65
2023/05/31 13:16:32;;;;;;;;;;;27.50;84.20;;;;;;7328817;19;110487;-62
2023/05/31 13:19:00;;;;;;;;;;;27.60;80.40;;;;;;7333957;19;109926;-62
2023/05/31 13:21:27;;;;;;;;;;;27.50;82.60;;;;;;7336458;19;110078;-62
2023/05/31 13:23:55;;;;;;;;;;;27.70;81.50;;;;;;7332245;19;109741;-69
2023/05/31 13:26:23;;;;;;;;;;;27.70;80.30;;;;;;7333245;19;110688;-69
2023/05/31 13:28:50;;;;;;;;;;;27.60;82.10;;;;;;7328180;19;111655;-72
2023/05/31 13:31:18;;;;;;;;;;;27.50;79.30;;;;;;7333565;19;109446;-69
2023/05/31 13:33:47;;;;;;;;;;;27.60;82.00;;;;;;7331238;19;110400;-65
2023/05/31 13:36:14;;;;;;;;;;;27.50;79.10;;;;;;7333076;19;112187;-63
2023/05/31 13:38:41;;;;;;;;;;;27.50;81.00;;;;;;7333843;19;110947;-63
2023/05/31 13:41:09;;;;;;;;;;;27.50;79.30;;;;;;7335501;19;111120;-69
2023/05/31 13:43:38;;;;;;;;;;;27.60;79.50;;;;;;7333808;19;111720;-66
2023/05/31 13:46:10;;;;;;;;;;;27.80;82.30;;;;;;7331937;19;110392;-63
2023/05/31 13:48:38;;;;;;;;;;;28.10;84.60;;;;;;7331100;19;111601;-65
2023/05/31 13:51:05;;;;;;;;;;;28.40;81.50;;;;;;7332031;19;110701;-64
2023/05/31 13:53:32;;;;;;;;;;;28.60;82.80;;;;;;7330590;19;110205;-63
2023/05/31 13:56:00;;;;;;;;;;;28.60;79.40;;;;;;7332972;19;110473;-67
2023/05/31 13:58:29;;;;;;;;;;;28.40;79.90;;;;;;7333878;19;111184;-68
2023/05/31 14:00:56;;;;;;;;;;;28.50;78.30;;;;;;7333510;19;109922;-71
2023/05/31 14:03:23;;;;;;;;;;;28.40;77.50;;;;;;7337180;19;110707;-67
2023/05/31 14:05:51;;;;;;;;;;;28.50;79.20;;;;;;7332438;19;109975;-73
2023/05/31 14:08:18;;;;;;;;;;;28.70;80.50;;;;;;7332817;19;110660;-70
2023/05/31 14:10:45;;;;;;;;;;;28.80;75.90;;;;;;7332350;19;109590;-73